Church Lawford, United Kingdom
Current Conditions -  °F | °C
As of 6:20 PM on Thursday 29 Jan 2015 (Local Time) from EGBE Reporting Station
Scattered Clouds Scattered Clouds  
Wind Chill: 29°   Ceiling: Unl
Heat Index: 36°   Visibility: 6mi
Dew Point: 32°   Wind: 9mph
Humidity: 87%   Direction: 250°WSW
Pressure: 28.85"   Gusts: NA
Location:  52.37°N, 1.33°W
Report Text: EGBE 291820Z 25008KT 9999 FEW027 SCT032 02/M00 Q0977
Loading
Personal Weather Stations






























Interactive Weather Map New forecast layout! Learn more

10-Day Weather Forecast

Advertisements
Track Severe Weather on mobile